sensor_id;sensor_type;location;lat;lon;timestamp;temperature;humidity
10848;DHT22;5477;48.806;9.154;2022-11-02T00:01:29;9.00;99.90
10848;DHT22;5477;48.806;9.154;2022-11-02T00:04:00;9.00;99.90
10848;DHT22;5477;48.806;9.154;2022-11-02T00:06:28;9.00;99.90
10848;DHT22;5477;48.806;9.154;2022-11-02T00:08:56;9.10;99.90
10848;DHT22;5477;48.806;9.154;2022-11-02T00:11:24;9.00;99.90
10848;DHT22;5477;48.806;9.154;2022-11-02T00:13:52;9.10;99.90
10848;DHT22;5477;48.806;9.154;2022-11-02T00:16:22;9.10;99.90
10848;DHT22;5477;48.806;9.154;2022-11-02T00:18:54;9.10;99.90
10848;DHT22;5477;48.806;9.154;2022-11-02T00:21:24;9.10;99.90
10848;DHT22;5477;48.806;9.154;2022-11-02T00:23:55;9.10;99.90
10848;DHT22;5477;48.806;9.154;2022-11-02T00:26:24;9.10;99.90
10848;DHT22;5477;48.806;9.154;2022-11-02T00:28:52;9.10;99.90
10848;DHT22;5477;48.806;9.154;2022-11-02T00:31:21;9.20;99.90
10848;DHT22;5477;48.806;9.154;2022-11-02T00:33:50;9.20;99.90
10848;DHT22;5477;48.806;9.154;2022-11-02T00:36:18;9.20;99.90
10848;DHT22;5477;48.806;9.154;2022-11-02T00:38:48;9.20;99.90
10848;DHT22;5477;48.806;9.154;2022-11-02T00:41:18;9.10;99.90
10848;DHT22;5477;48.806;9.154;2022-11-02T00:43:47;9.10;99.90
10848;DHT22;5477;48.806;9.154;2022-11-02T00:46:15;9.10;99.90
10848;DHT22;5477;48.806;9.154;2022-11-02T00:48:44;9.00;99.90
10848;DHT22;5477;48.806;9.154;2022-11-02T00:51:12;9.00;99.90
10848;DHT22;5477;48.806;9.154;2022-11-02T00:53:41;9.00;99.90
10848;DHT22;5477;48.806;9.154;2022-11-02T00:56:09;9.00;99.90
10848;DHT22;5477;48.806;9.154;2022-11-02T00:58:37;9.00;99.90
10848;DHT22;5477;48.806;9.154;2022-11-02T01:01:07;9.00;99.90
10848;DHT22;5477;48.806;9.154;2022-11-02T01:03:35;9.00;99.90
10848;DHT22;5477;48.806;9.154;2022-11-02T01:06:09;9.00;99.90
10848;DHT22;5477;48.806;9.154;2022-11-02T01:08:37;9.10;99.90
10848;DHT22;5477;48.806;9.154;2022-11-02T01:11:11;9.10;99.90
10848;DHT22;5477;48.806;9.154;2022-11-02T01:13:39;9.10;99.90
10848;DHT22;5477;48.806;9.154;2022-11-02T01:16:07;9.10;99.90
10848;DHT22;5477;48.806;9.154;2022-11-02T01:18:36;9.20;99.90
10848;DHT22;5477;48.806;9.154;2022-11-02T01:21:05;9.20;99.90
10848;DHT22;5477;48.806;9.154;2022-11-02T01:23:36;9.20;99.90
10848;DHT22;5477;48.806;9.154;2022-11-02T01:26:04;9.30;99.90
10848;DHT22;5477;48.806;9.154;2022-11-02T01:28:33;9.40;99.90
10848;DHT22;5477;48.806;9.154;2022-11-02T01:31:01;9.40;99.90
10848;DHT22;5477;48.806;9.154;2022-11-02T01:33:29;9.50;99.90
10848;DHT22;5477;48.806;9.154;2022-11-02T01:35:57;9.50;99.90
10848;DHT22;5477;48.806;9.154;2022-11-02T01:38:25;9.60;99.90
10848;DHT22;5477;48.806;9.154;2022-11-02T01:40:54;9.70;99.90
10848;DHT22;5477;48.806;9.154;2022-11-02T01:43:24;9.80;99.90
10848;DHT22;5477;48.806;9.154;2022-11-02T01:45:54;9.90;99.90
10848;DHT22;5477;48.806;9.154;2022-11-02T01:48:29;9.90;99.90
10848;DHT22;5477;48.806;9.154;2022-11-02T01:51:00;9.90;99.90
10848;DHT22;5477;48.806;9.154;2022-11-02T01:53:31;9.90;99.90
10848;DHT22;5477;48.806;9.154;2022-11-02T01:56:02;9.90;99.90
10848;DHT22;5477;48.806;9.154;2022-11-02T01:58:30;9.80;99.90
10848;DHT22;5477;48.806;9.154;2022-11-02T02:01:00;9.80;99.90
10848;DHT22;5477;48.806;9.154;2022-11-02T02:03:31;9.80;99.90
10848;DHT22;5477;48.806;9.154;2022-11-02T02:06:04;9.80;99.90
10848;DHT22;5477;48.806;9.154;2022-11-02T02:08:39;9.90;99.90
10848;DHT22;5477;48.806;9.154;2022-11-02T02:11:26;9.80;99.90
10848;DHT22;5477;48.806;9.154;2022-11-02T02:13:57;9.80;99.90
10848;DHT22;5477;48.806;9.154;2022-11-02T02:16:37;9.80;99.90
10848;DHT22;5477;48.806;9.154;2022-11-02T02:19:17;9.80;99.90
10848;DHT22;5477;48.806;9.154;2022-11-02T02:21:57;9.80;99.90
10848;DHT22;5477;48.806;9.154;2022-11-02T02:24:43;9.80;99.90
10848;DHT22;5477;48.806;9.154;2022-11-02T02:27:19;9.80;99.90
10848;DHT22;5477;48.806;9.154;2022-11-02T02:30:00;9.80;99.90
10848;DHT22;5477;48.806;9.154;2022-11-02T02:32:35;9.80;99.90
10848;DHT22;5477;48.806;9.154;2022-11-02T02:35:12;9.80;99.90
10848;DHT22;5477;48.806;9.154;2022-11-02T02:37:45;9.80;99.90
10848;DHT22;5477;48.806;9.154;2022-11-02T02:40:19;9.80;99.90
10848;DHT22;5477;48.806;9.154;2022-11-02T02:42:52;9.80;99.90
10848;DHT22;5477;48.806;9.154;2022-11-02T02:45:28;9.80;99.90
10848;DHT22;5477;48.806;9.154;2022-11-02T02:48:00;9.90;99.90
10848;DHT22;5477;48.806;9.154;2022-11-02T02:50:34;9.90;99.90
10848;DHT22;5477;48.806;9.154;2022-11-02T02:53:06;10.00;99.90
10848;DHT22;5477;48.806;9.154;2022-11-02T02:55:40;10.00;99.90
10848;DHT22;5477;48.806;9.154;2022-11-02T02:58:14;10.10;99.90
10848;DHT22;5477;48.806;9.154;2022-11-02T03:00:44;10.20;99.90
10848;DHT22;5477;48.806;9.154;2022-11-02T03:03:17;10.20;99.90
10848;DHT22;5477;48.806;9.154;2022-11-02T03:06:01;10.20;99.90
10848;DHT22;5477;48.806;9.154;2022-11-02T03:08:35;10.20;99.90
10848;DHT22;5477;48.806;9.154;2022-11-02T03:11:11;10.20;99.90
10848;DHT22;5477;48.806;9.154;2022-11-02T03:13:48;10.30;99.90
10848;DHT22;5477;48.806;9.154;2022-11-02T03:16:43;10.30;99.90
10848;DHT22;5477;48.806;9.154;2022-11-02T03:19:19;10.30;99.90
10848;DHT22;5477;48.806;9.154;2022-11-02T03:21:57;10.40;99.90
10848;DHT22;5477;48.806;9.154;2022-11-02T03:24:30;10.40;99.90
10848;DHT22;5477;48.806;9.154;2022-11-02T03:27:09;10.50;99.90
10848;DHT22;5477;48.806;9.154;2022-11-02T03:29:44;10.60;99.90
10848;DHT22;5477;48.806;9.154;2022-11-02T03:32:19;10.50;99.90
10848;DHT22;5477;48.806;9.154;2022-11-02T03:34:52;10.60;99.90
10848;DHT22;5477;48.806;9.154;2022-11-02T03:37:25;10.50;99.90
10848;DHT22;5477;48.806;9.154;2022-11-02T03:40:04;10.50;99.90
10848;DHT22;5477;48.806;9.154;2022-11-02T03:42:34;10.60;99.90
10848;DHT22;5477;48.806;9.154;2022-11-02T03:45:06;10.60;99.90
10848;DHT22;5477;48.806;9.154;2022-11-02T03:47:38;10.60;99.90
10848;DHT22;5477;48.806;9.154;2022-11-02T03:50:11;10.60;99.90
10848;DHT22;5477;48.806;9.154;2022-11-02T03:52:43;10.60;99.90
10848;DHT22;5477;48.806;9.154;2022-11-02T03:55:15;10.60;99.90
10848;DHT22;5477;48.806;9.154;2022-11-02T03:57:46;10.60;99.90
10848;DHT22;5477;48.806;9.154;2022-11-02T04:00:20;10.60;99.90
10848;DHT22;5477;48.806;9.154;2022-11-02T04:02:59;10.60;99.90
10848;DHT22;5477;48.806;9.154;2022-11-02T04:05:34;10.70;99.90
10848;DHT22;5477;48.806;9.154;2022-11-02T04:08:20;10.70;99.90
10848;DHT22;5477;48.806;9.154;2022-11-02T04:10:53;10.70;99.90
10848;DHT22;5477;48.806;9.154;2022-11-02T04:13:36;10.70;99.90
10848;DHT22;5477;48.806;9.154;2022-11-02T04:16:24;10.70;99.90
10848;DHT22;5477;48.806;9.154;2022-11-02T04:18:56;10.70;99.90
10848;DHT22;5477;48.806;9.154;2022-11-02T04:21:43;10.70;99.90
10848;DHT22;5477;48.806;9.154;2022-11-02T04:24:34;10.70;99.90
10848;DHT22;5477;48.806;9.154;2022-11-02T04:27:19;10.70;99.90
10848;DHT22;5477;48.806;9.154;2022-11-02T04:29:49;10.70;99.90
10848;DHT22;5477;48.806;9.154;2022-11-02T04:32:18;10.70;99.90
10848;DHT22;5477;48.806;9.154;2022-11-02T04:35:12;10.70;99.90
10848;DHT22;5477;48.806;9.154;2022-11-02T04:37:40;10.60;99.90
10848;DHT22;5477;48.806;9.154;2022-11-02T04:40:29;10.70;99.90
10848;DHT22;5477;48.806;9.154;2022-11-02T04:42:58;10.60;99.90
10848;DHT22;5477;48.806;9.154;2022-11-02T04:45:27;10.60;99.90
10848;DHT22;5477;48.806;9.154;2022-11-02T04:47:58;10.60;99.90
10848;DHT22;5477;48.806;9.154;2022-11-02T04:50:29;10.60;99.90
10848;DHT22;5477;48.806;9.154;2022-11-02T04:52:58;10.60;99.90
10848;DHT22;5477;48.806;9.154;2022-11-02T04:55:29;10.60;99.90
10848;DHT22;5477;48.806;9.154;2022-11-02T04:57:58;10.50;99.90
10848;DHT22;5477;48.806;9.154;2022-11-02T05:00:26;10.50;99.90
10848;DHT22;5477;48.806;9.154;2022-11-02T05:02:54;10.40;99.90
10848;DHT22;5477;48.806;9.154;2022-11-02T05:05:24;10.40;99.90
10848;DHT22;5477;48.806;9.154;2022-11-02T05:07:57;10.30;99.90
10848;DHT22;5477;48.806;9.154;2022-11-02T05:10:26;10.20;99.90
10848;DHT22;5477;48.806;9.154;2022-11-02T05:12:56;10.20;99.90
10848;DHT22;5477;48.806;9.154;2022-11-02T05:15:27;10.20;99.90
10848;DHT22;5477;48.806;9.154;2022-11-02T05:17:56;10.20;99.90
10848;DHT22;5477;48.806;9.154;2022-11-02T05:20:27;10.20;99.90
10848;DHT22;5477;48.806;9.154;2022-11-02T05:22:57;10.10;99.90
10848;DHT22;5477;48.806;9.154;2022-11-02T05:25:25;10.10;99.90
10848;DHT22;5477;48.806;9.154;2022-11-02T05:27:55;10.10;99.90
10848;DHT22;5477;48.806;9.154;2022-11-02T05:30:23;10.10;99.90
10848;DHT22;5477;48.806;9.154;2022-11-02T05:32:55;10.10;99.90
10848;DHT22;5477;48.806;9.154;2022-11-02T05:35:23;10.10;99.90
10848;DHT22;5477;48.806;9.154;2022-11-02T05:37:54;10.00;99.90
10848;DHT22;5477;48.806;9.154;2022-11-02T05:40:23;10.10;99.90
10848;DHT22;5477;48.806;9.154;2022-11-02T05:42:57;10.10;99.90
10848;DHT22;5477;48.806;9.154;2022-11-02T05:45:26;10.00;99.90
10848;DHT22;5477;48.806;9.154;2022-11-02T05:47:54;10.00;99.90
10848;DHT22;5477;48.806;9.154;2022-11-02T05:50:22;9.90;99.90
10848;DHT22;5477;48.806;9.154;2022-11-02T05:52:51;9.90;99.90
10848;DHT22;5477;48.806;9.154;2022-11-02T05:55:19;9.90;99.90
10848;DHT22;5477;48.806;9.154;2022-11-02T05:57:51;9.90;99.90
10848;DHT22;5477;48.806;9.154;2022-11-02T06:00:20;10.00;99.90
10848;DHT22;5477;48.806;9.154;2022-11-02T06:02:52;10.00;99.90
10848;DHT22;5477;48.806;9.154;2022-11-02T06:05:22;10.00;99.90
10848;DHT22;5477;48.806;9.154;2022-11-02T06:07:50;10.00;99.90
10848;DHT22;5477;48.806;9.154;2022-11-02T06:10:18;10.00;99.90
10848;DHT22;5477;48.806;9.154;2022-11-02T06:12:46;10.10;99.90
10848;DHT22;5477;48.806;9.154;2022-11-02T06:15:23;10.10;99.90
10848;DHT22;5477;48.806;9.154;2022-11-02T06:17:50;10.20;99.90
10848;DHT22;5477;48.806;9.154;2022-11-02T06:20:19;10.20;99.90
10848;DHT22;5477;48.806;9.154;2022-11-02T06:22:47;10.20;99.90
10848;DHT22;5477;48.806;9.154;2022-11-02T06:25:16;10.20;99.90
10848;DHT22;5477;48.806;9.154;2022-11-02T06:27:50;10.30;99.90
10848;DHT22;5477;48.806;9.154;2022-11-02T06:30:19;10.30;99.90
10848;DHT22;5477;48.806;9.154;2022-11-02T06:32:49;10.30;99.90
10848;DHT22;5477;48.806;9.154;2022-11-02T06:35:19;10.30;99.90
10848;DHT22;5477;48.806;9.154;2022-11-02T06:37:47;10.30;99.90
10848;DHT22;5477;48.806;9.154;2022-11-02T06:40:16;10.30;99.90
10848;DHT22;5477;48.806;9.154;2022-11-02T06:42:48;10.30;99.90
10848;DHT22;5477;48.806;9.154;2022-11-02T06:45:41;10.40;99.90
10848;DHT22;5477;48.806;9.154;2022-11-02T06:48:10;10.40;99.90
10848;DHT22;5477;48.806;9.154;2022-11-02T06:50:38;10.50;99.90
10848;DHT22;5477;48.806;9.154;2022-11-02T06:53:06;10.50;99.90
10848;DHT22;5477;48.806;9.154;2022-11-02T06:55:34;10.60;99.90
10848;DHT22;5477;48.806;9.154;2022-11-02T06:58:02;10.70;99.90
10848;DHT22;5477;48.806;9.154;2022-11-02T07:00:30;10.80;99.90
10848;DHT22;5477;48.806;9.154;2022-11-02T07:02:59;10.80;99.90
10848;DHT22;5477;48.806;9.154;2022-11-02T07:05:30;10.90;99.90
10848;DHT22;5477;48.806;9.154;2022-11-02T07:07:58;11.00;99.90
10848;DHT22;5477;48.806;9.154;2022-11-02T07:10:26;11.10;99.90
10848;DHT22;5477;48.806;9.154;2022-11-02T07:12:55;11.20;99.90
10848;DHT22;5477;48.806;9.154;2022-11-02T07:15:24;11.30;99.90
10848;DHT22;5477;48.806;9.154;2022-11-02T07:17:53;11.40;99.90
10848;DHT22;5477;48.806;9.154;2022-11-02T07:20:21;11.40;99.90
10848;DHT22;5477;48.806;9.154;2022-11-02T07:22:54;11.50;99.90
10848;DHT22;5477;48.806;9.154;2022-11-02T07:25:24;11.50;99.90
10848;DHT22;5477;48.806;9.154;2022-11-02T07:27:52;11.60;99.90
10848;DHT22;5477;48.806;9.154;2022-11-02T07:30:21;11.60;99.90
10848;DHT22;5477;48.806;9.154;2022-11-02T07:32:49;11.70;99.90
10848;DHT22;5477;48.806;9.154;2022-11-02T07:35:17;11.80;99.90
10848;DHT22;5477;48.806;9.154;2022-11-02T07:37:55;11.90;99.90
10848;DHT22;5477;48.806;9.154;2022-11-02T07:40:24;12.00;99.90
10848;DHT22;5477;48.806;9.154;2022-11-02T07:42:52;12.00;99.90
10848;DHT22;5477;48.806;9.154;2022-11-02T07:45:29;12.00;99.90
10848;DHT22;5477;48.806;9.154;2022-11-02T07:47:56;12.10;99.90
10848;DHT22;5477;48.806;9.154;2022-11-02T07:50:25;12.10;99.90
10848;DHT22;5477;48.806;9.154;2022-11-02T07:52:56;12.10;99.90
10848;DHT22;5477;48.806;9.154;2022-11-02T07:55:26;12.10;99.90
10848;DHT22;5477;48.806;9.154;2022-11-02T07:57:56;12.10;99.90
10848;DHT22;5477;48.806;9.154;2022-11-02T08:00:27;12.10;99.90
10848;DHT22;5477;48.806;9.154;2022-11-02T08:02:55;12.20;99.90
10848;DHT22;5477;48.806;9.154;2022-11-02T08:05:24;12.20;99.90
10848;DHT22;5477;48.806;9.154;2022-11-02T08:07:57;12.30;99.90
10848;DHT22;5477;48.806;9.154;2022-11-02T08:10:26;12.40;99.90
10848;DHT22;5477;48.806;9.154;2022-11-02T08:12:54;12.40;99.90
10848;DHT22;5477;48.806;9.154;2022-11-02T08:15:22;12.50;99.90
10848;DHT22;5477;48.806;9.154;2022-11-02T08:17:59;12.60;99.90
10848;DHT22;5477;48.806;9.154;2022-11-02T08:20:28;12.80;99.90
10848;DHT22;5477;48.806;9.154;2022-11-02T08:22:57;12.90;99.90
10848;DHT22;5477;48.806;9.154;2022-11-02T08:25:25;13.00;99.90
10848;DHT22;5477;48.806;9.154;2022-11-02T08:27:55;13.20;99.90
10848;DHT22;5477;48.806;9.154;2022-11-02T08:30:23;13.30;99.90
10848;DHT22;5477;48.806;9.154;2022-11-02T08:32:51;13.50;99.90
10848;DHT22;5477;48.806;9.154;2022-11-02T08:35:22;13.60;99.90
10848;DHT22;5477;48.806;9.154;2022-11-02T08:37:55;13.70;99.90
10848;DHT22;5477;48.806;9.154;2022-11-02T08:40:25;13.80;99.90
10848;DHT22;5477;48.806;9.154;2022-11-02T08:42:56;13.90;99.90
10848;DHT22;5477;48.806;9.154;2022-11-02T08:45:24;14.10;99.90
10848;DHT22;5477;48.806;9.154;2022-11-02T08:47:52;14.10;99.90
10848;DHT22;5477;48.806;9.154;2022-11-02T08:50:21;14.10;99.90
10848;DHT22;5477;48.806;9.154;2022-11-02T08:52:49;14.10;99.90
10848;DHT22;5477;48.806;9.154;2022-11-02T08:55:17;14.20;99.90
10848;DHT22;5477;48.806;9.154;2022-11-02T08:57:48;14.30;99.90
10848;DHT22;5477;48.806;9.154;2022-11-02T09:00:16;14.30;99.90
10848;DHT22;5477;48.806;9.154;2022-11-02T09:02:57;14.30;99.90
10848;DHT22;5477;48.806;9.154;2022-11-02T09:05:26;14.30;99.90
10848;DHT22;5477;48.806;9.154;2022-11-02T09:07:55;14.30;99.90
10848;DHT22;5477;48.806;9.154;2022-11-02T09:10:23;14.30;99.90
10848;DHT22;5477;48.806;9.154;2022-11-02T09:12:53;14.30;99.90
10848;DHT22;5477;48.806;9.154;2022-11-02T09:15:21;14.30;99.90
10848;DHT22;5477;48.806;9.154;2022-11-02T09:17:49;14.20;99.90
10848;DHT22;5477;48.806;9.154;2022-11-02T09:20:17;14.20;99.90
10848;DHT22;5477;48.806;9.154;2022-11-02T09:22:46;14.30;99.90
10848;DHT22;5477;48.806;9.154;2022-11-02T09:25:14;14.30;99.90
10848;DHT22;5477;48.806;9.154;2022-11-02T09:27:43;14.30;99.90
10848;DHT22;5477;48.806;9.154;2022-11-02T09:30:12;14.20;99.90
10848;DHT22;5477;48.806;9.154;2022-11-02T09:32:40;14.20;99.90
10848;DHT22;5477;48.806;9.154;2022-11-02T09:35:10;14.20;99.90
10848;DHT22;5477;48.806;9.154;2022-11-02T09:37:38;14.20;99.90
10848;DHT22;5477;48.806;9.154;2022-11-02T09:40:19;14.30;99.90
10848;DHT22;5477;48.806;9.154;2022-11-02T09:42:57;14.40;99.90
10848;DHT22;5477;48.806;9.154;2022-11-02T09:45:33;14.50;99.90
10848;DHT22;5477;48.806;9.154;2022-11-02T09:48:05;14.50;99.90
10848;DHT22;5477;48.806;9.154;2022-11-02T09:50:58;14.50;99.90
10848;DHT22;5477;48.806;9.154;2022-11-02T09:53:35;14.60;99.90
10848;DHT22;5477;48.806;9.154;2022-11-02T09:56:06;14.60;99.90
10848;DHT22;5477;48.806;9.154;2022-11-02T09:58:36;14.70;99.90
10848;DHT22;5477;48.806;9.154;2022-11-02T10:01:17;14.70;99.90
10848;DHT22;5477;48.806;9.154;2022-11-02T10:04:05;14.70;99.90
10848;DHT22;5477;48.806;9.154;2022-11-02T10:06:44;14.70;99.90
10848;DHT22;5477;48.806;9.154;2022-11-02T10:09:18;14.70;99.90
10848;DHT22;5477;48.806;9.154;2022-11-02T10:11:54;14.70;99.90
10848;DHT22;5477;48.806;9.154;2022-11-02T10:14:29;14.80;99.90
10848;DHT22;5477;48.806;9.154;2022-11-02T10:17:11;14.80;99.90
10848;DHT22;5477;48.806;9.154;2022-11-02T10:19:48;14.80;99.90
10848;DHT22;5477;48.806;9.154;2022-11-02T10:22:18;14.80;99.90
10848;DHT22;5477;48.806;9.154;2022-11-02T10:24:49;14.80;99.90
10848;DHT22;5477;48.806;9.154;2022-11-02T10:27:21;14.90;99.90
10848;DHT22;5477;48.806;9.154;2022-11-02T10:29:54;14.90;99.90
10848;DHT22;5477;48.806;9.154;2022-11-02T10:32:26;14.80;99.90
10848;DHT22;5477;48.806;9.154;2022-11-02T10:34:54;14.90;99.90
10848;DHT22;5477;48.806;9.154;2022-11-02T10:37:51;14.90;99.90
10848;DHT22;5477;48.806;9.154;2022-11-02T10:40:35;15.00;99.90
10848;DHT22;5477;48.806;9.154;2022-11-02T10:43:16;15.00;99.90
10848;DHT22;5477;48.806;9.154;2022-11-02T10:48:58;15.10;99.90
10848;DHT22;5477;48.806;9.154;2022-11-02T10:51:28;15.30;99.90
10848;DHT22;5477;48.806;9.154;2022-11-02T10:53:56;15.30;99.90
10848;DHT22;5477;48.806;9.154;2022-11-02T10:56:29;15.30;99.90
10848;DHT22;5477;48.806;9.154;2022-11-02T10:59:02;15.30;99.90
10848;DHT22;5477;48.806;9.154;2022-11-02T11:01:31;15.40;99.90
10848;DHT22;5477;48.806;9.154;2022-11-02T11:04:02;15.60;99.90
10848;DHT22;5477;48.806;9.154;2022-11-02T11:06:33;15.80;99.90
10848;DHT22;5477;48.806;9.154;2022-11-02T11:09:03;15.70;99.90
10848;DHT22;5477;48.806;9.154;2022-11-02T11:11:34;15.80;99.90
10848;DHT22;5477;48.806;9.154;2022-11-02T11:14:04;15.80;99.90
10848;DHT22;5477;48.806;9.154;2022-11-02T11:16:54;15.80;99.90
10848;DHT22;5477;48.806;9.154;2022-11-02T11:19:49;15.70;99.90
10848;DHT22;5477;48.806;9.154;2022-11-02T11:22:28;15.70;99.90
10848;DHT22;5477;48.806;9.154;2022-11-02T11:25:18;15.70;99.90
10848;DHT22;5477;48.806;9.154;2022-11-02T11:27:55;15.80;99.90
10848;DHT22;5477;48.806;9.154;2022-11-02T11:30:26;15.90;99.90
10848;DHT22;5477;48.806;9.154;2022-11-02T11:33:16;16.40;99.90
10848;DHT22;5477;48.806;9.154;2022-11-02T11:35:48;16.60;99.90
10848;DHT22;5477;48.806;9.154;2022-11-02T11:38:20;16.80;99.90
10848;DHT22;5477;48.806;9.154;2022-11-02T11:40:51;17.20;99.90
10848;DHT22;5477;48.806;9.154;2022-11-02T11:43:22;17.50;99.90
10848;DHT22;5477;48.806;9.154;2022-11-02T11:45:56;17.80;99.90
10848;DHT22;5477;48.806;9.154;2022-11-02T11:48:35;17.80;99.90
10848;DHT22;5477;48.806;9.154;2022-11-02T11:51:23;17.90;99.90
10848;DHT22;5477;48.806;9.154;2022-11-02T11:54:12;17.80;99.90
10848;DHT22;5477;48.806;9.154;2022-11-02T11:56:41;18.10;99.90
10848;DHT22;5477;48.806;9.154;2022-11-02T11:59:19;18.10;99.90
10848;DHT22;5477;48.806;9.154;2022-11-02T12:01:48;18.30;99.90
10848;DHT22;5477;48.806;9.154;2022-11-02T12:04:26;18.30;99.90
10848;DHT22;5477;48.806;9.154;2022-11-02T12:09:56;18.90;99.90
10848;DHT22;5477;48.806;9.154;2022-11-02T12:12:35;18.70;99.90
10848;DHT22;5477;48.806;9.154;2022-11-02T12:15:16;18.50;99.90
10848;DHT22;5477;48.806;9.154;2022-11-02T12:17:56;18.30;99.90
10848;DHT22;5477;48.806;9.154;2022-11-02T12:20:49;17.90;99.90
10848;DHT22;5477;48.806;9.154;2022-11-02T12:23:30;17.70;99.90
10848;DHT22;5477;48.806;9.154;2022-11-02T12:26:17;17.50;99.90
10848;DHT22;5477;48.806;9.154;2022-11-02T12:28:55;17.20;99.90
10848;DHT22;5477;48.806;9.154;2022-11-02T12:31:34;17.10;99.90
10848;DHT22;5477;48.806;9.154;2022-11-02T12:34:18;17.00;99.90
10848;DHT22;5477;48.806;9.154;2022-11-02T12:36:58;16.80;99.90
10848;DHT22;5477;48.806;9.154;2022-11-02T12:40:02;16.50;99.90
10848;DHT22;5477;48.806;9.154;2022-11-02T12:42:36;16.40;99.90
10848;DHT22;5477;48.806;9.154;2022-11-02T12:45:20;16.50;99.90
10848;DHT22;5477;48.806;9.154;2022-11-02T12:47:57;16.50;99.90
10848;DHT22;5477;48.806;9.154;2022-11-02T12:50:35;16.40;99.90
10848;DHT22;5477;48.806;9.154;2022-11-02T12:53:16;16.40;99.90
10848;DHT22;5477;48.806;9.154;2022-11-02T12:55:51;16.40;99.90
10848;DHT22;5477;48.806;9.154;2022-11-02T12:58:26;16.40;99.90
10848;DHT22;5477;48.806;9.154;2022-11-02T13:00:57;16.40;99.90
10848;DHT22;5477;48.806;9.154;2022-11-02T13:03:33;16.40;99.90
10848;DHT22;5477;48.806;9.154;2022-11-02T13:06:05;16.30;99.90
10848;DHT22;5477;48.806;9.154;2022-11-02T13:08:37;16.20;99.90
10848;DHT22;5477;48.806;9.154;2022-11-02T13:11:13;16.20;99.90
10848;DHT22;5477;48.806;9.154;2022-11-02T13:13:44;16.20;99.90
10848;DHT22;5477;48.806;9.154;2022-11-02T13:16:14;16.30;99.90
10848;DHT22;5477;48.806;9.154;2022-11-02T13:18:46;16.30;99.90
10848;DHT22;5477;48.806;9.154;2022-11-02T13:21:17;16.40;99.90
10848;DHT22;5477;48.806;9.154;2022-11-02T13:23:49;16.30;99.90
10848;DHT22;5477;48.806;9.154;2022-11-02T13:26:26;16.40;99.90
10848;DHT22;5477;48.806;9.154;2022-11-02T13:29:00;16.30;99.90
10848;DHT22;5477;48.806;9.154;2022-11-02T13:31:33;16.30;99.90
10848;DHT22;5477;48.806;9.154;2022-11-02T13:34:04;16.30;99.90
10848;DHT22;5477;48.806;9.154;2022-11-02T13:36:35;16.40;99.90
10848;DHT22;5477;48.806;9.154;2022-11-02T13:39:07;16.40;99.90
10848;DHT22;5477;48.806;9.154;2022-11-02T13:41:50;16.50;99.90
10848;DHT22;5477;48.806;9.154;2022-11-02T13:44:35;16.40;99.90
10848;DHT22;5477;48.806;9.154;2022-11-02T13:47:17;16.40;99.90
10848;DHT22;5477;48.806;9.154;2022-11-02T13:49:51;16.30;99.90
10848;DHT22;5477;48.806;9.154;2022-11-02T13:52:23;16.30;99.90
10848;DHT22;5477;48.806;9.154;2022-11-02T13:54:57;16.30;99.90
10848;DHT22;5477;48.806;9.154;2022-11-02T13:57:33;16.20;99.90
10848;DHT22;5477;48.806;9.154;2022-11-02T14:00:06;16.20;99.90
10848;DHT22;5477;48.806;9.154;2022-11-02T14:02:36;16.30;99.90
10848;DHT22;5477;48.806;9.154;2022-11-02T14:05:08;16.30;99.90
10848;DHT22;5477;48.806;9.154;2022-11-02T14:07:39;16.40;99.90
10848;DHT22;5477;48.806;9.154;2022-11-02T14:10:14;16.20;99.90
10848;DHT22;5477;48.806;9.154;2022-11-02T14:12:44;16.20;99.90
10848;DHT22;5477;48.806;9.154;2022-11-02T14:15:50;16.20;99.90
10848;DHT22;5477;48.806;9.154;2022-11-02T14:18:26;16.20;99.90
10848;DHT22;5477;48.806;9.154;2022-11-02T14:20:57;16.00;99.90
10848;DHT22;5477;48.806;9.154;2022-11-02T14:23:38;16.10;99.90
10848;DHT22;5477;48.806;9.154;2022-11-02T14:26:28;16.10;99.90
10848;DHT22;5477;48.806;9.154;2022-11-02T14:29:02;16.10;99.90
10848;DHT22;5477;48.806;9.154;2022-11-02T14:31:48;16.00;99.90
10848;DHT22;5477;48.806;9.154;2022-11-02T14:34:44;15.90;99.90
10848;DHT22;5477;48.806;9.154;2022-11-02T14:37:39;15.80;99.90
10848;DHT22;5477;48.806;9.154;2022-11-02T14:40:26;15.60;99.90
10848;DHT22;5477;48.806;9.154;2022-11-02T14:46:16;15.80;99.90
10848;DHT22;5477;48.806;9.154;2022-11-02T14:48:50;15.90;99.90
10848;DHT22;5477;48.806;9.154;2022-11-02T14:51:20;16.00;99.90
10848;DHT22;5477;48.806;9.154;2022-11-02T14:53:54;16.00;99.90
10848;DHT22;5477;48.806;9.154;2022-11-02T14:56:23;15.90;99.90
10848;DHT22;5477;48.806;9.154;2022-11-02T14:58:55;15.80;99.90
10848;DHT22;5477;48.806;9.154;2022-11-02T15:01:25;15.80;99.90
10848;DHT22;5477;48.806;9.154;2022-11-02T15:03:53;15.80;99.90
10848;DHT22;5477;48.806;9.154;2022-11-02T15:06:22;16.30;99.90
10848;DHT22;5477;48.806;9.154;2022-11-02T15:08:54;16.70;99.90
10848;DHT22;5477;48.806;9.154;2022-11-02T15:11:42;16.80;99.90
10848;DHT22;5477;48.806;9.154;2022-11-02T15:14:32;16.60;99.90
10848;DHT22;5477;48.806;9.154;2022-11-02T15:20:31;16.20;99.90
10848;DHT22;5477;48.806;9.154;2022-11-02T15:23:21;15.90;99.90
10848;DHT22;5477;48.806;9.154;2022-11-02T15:25:58;15.70;99.90
10848;DHT22;5477;48.806;9.154;2022-11-02T15:28:28;15.50;99.90
10848;DHT22;5477;48.806;9.154;2022-11-02T15:31:03;15.30;99.90
10848;DHT22;5477;48.806;9.154;2022-11-02T15:33:35;14.90;99.90
10848;DHT22;5477;48.806;9.154;2022-11-02T15:36:07;14.60;99.90
10848;DHT22;5477;48.806;9.154;2022-11-02T15:38:40;14.40;99.90
10848;DHT22;5477;48.806;9.154;2022-11-02T15:41:22;14.20;99.90
10848;DHT22;5477;48.806;9.154;2022-11-02T15:44:06;13.90;99.90
10848;DHT22;5477;48.806;9.154;2022-11-02T15:46:45;13.70;99.90
10848;DHT22;5477;48.806;9.154;2022-11-02T15:49:29;13.60;99.90
10848;DHT22;5477;48.806;9.154;2022-11-02T15:52:08;13.40;99.90
10848;DHT22;5477;48.806;9.154;2022-11-02T15:54:59;13.40;99.90
10848;DHT22;5477;48.806;9.154;2022-11-02T15:57:39;13.40;99.90
10848;DHT22;5477;48.806;9.154;2022-11-02T16:00:17;13.30;99.90
10848;DHT22;5477;48.806;9.154;2022-11-02T16:02:47;13.10;99.90
10848;DHT22;5477;48.806;9.154;2022-11-02T16:05:19;13.00;99.90
10848;DHT22;5477;48.806;9.154;2022-11-02T16:07:49;12.80;99.90
10848;DHT22;5477;48.806;9.154;2022-11-02T16:10:38;12.70;99.90
10848;DHT22;5477;48.806;9.154;2022-11-02T16:13:13;12.60;99.90
10848;DHT22;5477;48.806;9.154;2022-11-02T16:15:46;12.60;99.90
10848;DHT22;5477;48.806;9.154;2022-11-02T16:18:24;12.60;99.90
10848;DHT22;5477;48.806;9.154;2022-11-02T16:20:54;12.50;99.90
10848;DHT22;5477;48.806;9.154;2022-11-02T16:23:26;12.20;99.90
10848;DHT22;5477;48.806;9.154;2022-11-02T16:25:56;11.90;99.90
10848;DHT22;5477;48.806;9.154;2022-11-02T16:28:26;11.80;99.90
10848;DHT22;5477;48.806;9.154;2022-11-02T16:31:03;11.70;99.90
10848;DHT22;5477;48.806;9.154;2022-11-02T16:33:45;11.50;99.90
10848;DHT22;5477;48.806;9.154;2022-11-02T16:36:15;11.40;99.90
10848;DHT22;5477;48.806;9.154;2022-11-02T16:38:55;11.30;99.90
10848;DHT22;5477;48.806;9.154;2022-11-02T16:41:24;11.30;99.90
10848;DHT22;5477;48.806;9.154;2022-11-02T16:43:53;11.20;99.90